Time;durP1;ratioP1;P1;durP2;ratioP2;P2;SDS_P1;SDS_P2;PMS_P1;PMS_P2;Temp;Humidity;BMP_temperature;BMP_pressure;BME280_temperature;BME280_humidity;BME280_pressure;Samples;Min_cycle;Max_cycle;Signal;HPM_P1;HPM_P2
2022/09/01 00:00:33;;;;;;;20.85;17.15;;;;;;;29.38;56.48;100758.34;5067409;28;65909;-29
2022/09/01 00:03:05;;;;;;;19.23;17.35;;;;;;;29.36;57.23;100750.47;5069777;27;69953;-30
2022/09/01 00:05:36;;;;;;;;;;;;;;;29.19;62.31;100757.34;5072807;27;66812;-29
2022/09/01 00:08:08;;;;;;;33.70;25.67;;;;;;;29.50;64.00;100766.63;5082492;28;70285;-29
2022/09/01 00:10:44;;;;;;;35.22;28.27;;;;;;;29.57;64.90;100764.72;5077970;28;67012;-31
2022/09/01 00:13:17;;;;;;;42.13;30.35;;;;;;;29.64;65.86;100768.25;5073279;28;69288;-29
2022/09/01 00:15:49;;;;;;;41.28;30.55;;;;;;;29.68;66.27;100765.97;5076101;27;65970;-29
2022/09/01 00:18:21;;;;;;;39.97;31.77;;;;;;;29.69;67.59;100754.09;5078518;28;70988;-29
2022/09/01 00:20:57;;;;;;;;;;;;;;;29.49;68.80;100764.97;5076968;28;66394;-29
2022/09/01 00:23:29;;;;;;;40.90;31.90;;;;;;;29.78;67.36;100764.47;5079207;28;70911;-28
2022/09/01 00:26:01;;;;;;;;;;;;;;;29.56;69.94;100765.75;5078017;28;66137;-31
2022/09/01 00:28:35;;;;;;;46.67;32.77;;;;;;;29.83;69.12;100770.03;5077390;27;70885;-30
2022/09/01 00:31:08;;;;;;;43.47;32.85;;;;;;;29.91;69.41;100773.53;5077165;28;67043;-29
2022/09/01 00:33:41;;;;;;;44.45;31.35;;;;;;;29.68;68.77;100728.94;5076364;27;70763;-28
2022/09/01 00:36:14;;;;;;;40.50;31.88;;;;;;;30.00;68.56;100783.03;5078115;27;66994;-28
2022/09/01 00:38:47;;;;;;;42.97;31.63;;;;;;;29.96;69.29;100766.44;5076997;28;70546;-29
2022/09/01 00:41:22;;;;;;;42.17;32.03;;;;;;;29.67;67.15;100711.06;5073020;28;66211;-28
2022/09/01 00:44:04;;;;;;;44.65;31.42;;;;;;;30.03;70.46;100794.28;5076032;28;70250;-28
2022/09/01 00:46:40;;;;;;;41.40;30.83;;;;;;;30.09;69.82;100787.19;5075160;28;66982;-28
2022/09/01 00:49:38;;;;;;;38.90;30.75;;;;;;;29.78;70.81;100748.25;5074695;28;70660;-28
2022/09/01 00:52:19;;;;;;;51.88;32.15;;;;;;;30.04;70.93;100789.69;5072787;28;67040;-28
2022/09/01 00:54:57;;;;;;;38.40;29.95;;;;;;;29.99;71.58;100781.41;5070447;27;70510;-28
2022/09/01 00:57:29;;;;;;;36.78;29.73;;;;;;;30.12;72.01;100800.25;5063514;27;66855;-29
2022/09/01 01:00:16;;;;;;;38.03;29.98;;;;;;;30.00;71.68;100778.47;5074162;28;71075;-31
2022/09/01 01:02:54;;;;;;;38.53;29.52;;;;;;;30.18;72.12;100807.50;5071194;28;66875;-28
2022/09/01 01:05:32;;;;;;;37.33;29.65;;;;;;;30.17;72.03;100794.19;5069813;28;70471;-28
2022/09/01 01:08:07;;;;;;;37.28;28.13;;;;;;;30.19;72.09;100802.91;5077438;28;66997;-28
2022/09/01 01:10:41;;;;;;;40.53;29.35;;;;;;;29.30;73.08;100664.84;5075087;28;70756;-28
2022/09/01 01:13:16;;;;;;;34.88;28.27;;;;;;;30.24;73.16;100817.47;5077917;27;66919;-28
2022/09/01 01:15:48;;;;;;;33.67;27.67;;;;;;;30.20;73.03;100810.84;5077920;28;72007;-28
2022/09/01 01:18:19;;;;;;;;;;;;;;;29.97;74.56;100816.75;5072589;28;66334;-29
2022/09/01 01:24:05;;;;;;;35.00;26.75;;;;;;;29.86;73.89;100743.59;5078275;28;66396;-28
2022/09/01 01:26:38;;;;;;;;;;;;;;;30.01;75.05;100817.19;5074486;28;70680;-29
2022/09/01 01:29:10;;;;;;;30.10;26.40;;;;;;;30.22;74.40;100808.75;5071267;28;66496;-29
2022/09/01 01:31:43;;;;;;;38.05;26.58;;;;;;;30.23;73.46;100794.19;5067467;28;70506;-28
2022/09/01 01:34:16;;;;;;;36.15;26.98;;;;;;;30.38;73.59;100812.00;5072999;28;67455;-28
2022/09/01 01:36:49;;;;;;;31.48;24.67;;;;;;;30.40;73.44;100815.31;5069620;28;70878;-28
2022/09/01 01:39:27;;;;;;;26.15;23.13;;;;;;;30.57;70.79;100810.19;5068724;28;66776;-27
2022/09/01 01:42:00;;;;;;;23.65;21.30;;;;;;;30.59;70.71;100800.81;5075864;28;70898;-28
2022/09/01 01:44:32;;;;;;;24.05;21.52;;;;;;;30.70;69.66;100800.09;5081147;28;66987;-28
2022/09/01 01:47:11;;;;;;;24.20;21.60;;;;;;;30.68;69.44;100791.34;5079912;28;71151;-27
2022/09/01 01:49:44;;;;;;;24.70;20.67;;;;;;;30.90;69.64;100815.38;5079580;28;66706;-28
2022/09/01 01:52:19;;;;;;;25.27;22.20;;;;;;;30.96;69.48;100809.06;5081323;27;70712;-27
2022/09/01 01:54:55;;;;;;;23.52;21.08;;;;;;;31.01;69.45;100809.22;5081142;28;66996;-28
2022/09/01 01:57:34;;;;;;;22.60;20.40;;;;;;;30.87;69.66;100778.72;5080382;28;70378;-27
2022/09/01 02:00:08;;;;;;;23.25;20.83;;;;;;;31.15;69.51;100809.94;5053469;28;66629;-28
2022/09/01 02:02:41;;;;;;;25.27;20.67;;;;;;;31.20;69.49;100812.75;5078504;28;70473;-32
2022/09/01 02:05:19;;;;;;;22.48;20.13;;;;;;;31.22;69.00;100812.56;5081594;27;65827;-28
2022/09/01 02:07:58;;;;;;;28.10;19.95;;;;;;;30.89;69.46;100743.28;5077469;28;69922;-28
2022/09/01 02:10:34;;;;;;;21.83;19.55;;;;;;;31.31;69.42;100800.34;5080825;28;67062;-28
2022/09/01 02:13:07;;;;;;;21.17;19.08;;;;;;;31.35;68.99;100801.56;5082479;27;70505;-31
2022/09/01 02:15:43;;;;;;;19.77;17.98;;;;;;;30.53;68.66;100662.78;5073357;28;66905;-33
2022/09/01 02:18:22;;;;;;;21.33;19.17;;;;;;;31.43;69.72;100809.44;5075450;28;70920;-27
2022/09/01 02:20:57;;;;;;;20.77;18.67;;;;;;;31.47;68.49;100809.81;5083458;27;66710;-29
2022/09/01 02:23:30;;;;;;;19.50;17.70;;;;;;;31.45;68.26;100801.06;5069937;27;70744;-27
2022/09/01 02:26:05;;;;;;;19.73;17.70;;;;;;;31.53;68.25;100817.84;5071539;28;66110;-29
2022/09/01 02:28:49;;;;;;;19.65;17.50;;;;;;;31.51;68.83;100811.84;5063882;28;70080;-28
2022/09/01 02:31:38;;;;;;;18.88;17.02;;;;;;;31.60;68.89;100810.50;5064231;27;66721;-28
2022/09/01 02:34:12;;;;;;;18.40;16.20;;;;;;;31.64;68.86;100815.44;5073159;28;70903;-28
2022/09/01 02:36:50;;;;;;;22.65;18.17;;;;;;;31.60;68.62;100821.34;5068454;27;66174;-29
2022/09/01 02:39:32;;;;;;;20.70;17.45;;;;;;;31.32;70.57;100802.84;5073767;27;70873;-29
2022/09/01 02:42:04;;;;;;;31.30;18.83;;;;;;;31.24;71.41;100805.03;5074349;28;66003;-28
2022/09/01 02:44:37;;;;;;;29.60;18.45;;;;;;;31.28;72.48;100822.50;5040756;28;70426;-29
2022/09/01 02:47:11;;;;;;;23.35;17.30;;;;;;;31.26;72.78;100816.47;5055207;28;66434;-29
2022/09/01 02:49:43;;;;;;;19.63;17.38;;;;;;;31.19;73.84;100813.00;5075273;28;70867;-30
2022/09/01 02:52:19;;;;;;;19.52;17.25;;;;;;;31.14;73.90;100813.66;5076108;28;66199;-29
2022/09/01 02:54:52;;;;;;;22.98;16.08;;;;;;;31.04;74.71;100811.47;5070106;28;70895;-30
2022/09/01 02:57:24;;;;;;;18.77;16.73;;;;;;;31.11;75.17;100825.78;5073203;28;66646;-33
2022/09/01 02:59:57;;;;;;;18.73;16.02;;;;;;;31.09;74.92;100827.91;5070060;28;70237;-29
2022/09/01 03:02:34;;;;;;;24.63;16.08;;;;;;;31.09;75.27;100824.34;5071043;27;66665;-29
2022/09/01 03:05:07;;;;;;;25.58;15.50;;;;;;;31.08;76.01;100818.09;5066899;27;70561;-29
2022/09/01 03:07:41;;;;;;;21.83;15.98;;;;;;;31.10;76.05;100810.59;5076237;28;66168;-29
2022/09/01 03:10:15;;;;;;;21.77;15.43;;;;;;;31.09;75.72;100811.66;5071570;28;70903;-33
2022/09/01 03:12:48;;;;;;;17.90;15.85;;;;;;;31.04;76.19;100789.81;5075134;28;67036;-31
2022/09/01 03:15:22;;;;;;;27.80;16.55;;;;;;;31.12;76.69;100803.06;5071234;28;70648;-30
2022/09/01 03:17:54;;;;;;;29.20;15.13;;;;;;;31.15;76.81;100794.50;5074940;28;66028;-29
2022/09/01 03:20:29;;;;;;;15.63;14.13;;;;;;;30.67;76.83;100716.59;5070681;28;70691;-29
2022/09/01 03:23:06;;;;;;;17.77;15.27;;;;;;;30.54;75.81;100681.53;5078355;28;67132;-31
2022/09/01 03:25:41;;;;;;;17.75;15.52;;;;;;;30.84;76.48;100737.69;5068077;28;70563;-29
2022/09/01 03:28:14;;;;;;;19.80;13.80;;;;;;;31.11;76.17;100771.59;5071209;28;67132;-29
2022/09/01 03:30:50;;;;;;;16.25;14.60;;;;;;;31.23;75.82;100784.38;5067016;28;69667;-28
2022/09/01 03:33:26;;;;;;;19.17;13.75;;;;;;;31.27;76.49;100785.63;5071063;28;65933;-27
2022/09/01 03:36:00;;;;;;;22.50;14.38;;;;;;;31.29;77.10;100786.22;5076469;28;70562;-28
2022/09/01 03:38:32;;;;;;;19.92;13.52;;;;;;;31.31;76.89;100781.38;5089011;27;66237;-32
2022/09/01 03:41:08;;;;;;;21.15;13.90;;;;;;;31.32;77.08;100785.78;5070026;28;70002;-28
2022/09/01 03:43:40;;;;;;;19.92;13.93;;;;;;;31.35;76.83;100786.13;5071595;28;65866;-30
2022/09/01 03:46:20;;;;;;;15.65;14.35;;;;;;;31.36;76.57;100768.03;5072348;28;70782;-29
2022/09/01 03:49:06;;;;;;;19.83;14.32;;;;;;;30.91;76.21;100695.97;5073932;28;66964;-31
2022/09/01 03:51:42;;;;;;;15.65;13.65;;;;;;;31.39;75.87;100762.16;5071895;28;70013;-30
2022/09/01 03:54:14;;;;;;;19.30;13.13;;;;;;;31.40;76.06;100769.25;5090969;27;66555;-29
2022/09/01 03:56:47;;;;;;;20.33;14.32;;;;;;;31.40;75.96;100763.81;5075776;27;70010;-29
2022/09/01 03:59:21;;;;;;;15.27;13.10;;;;;;;31.38;75.68;100757.78;5071014;28;66953;-31
2022/09/01 04:01:53;;;;;;;17.20;13.30;;;;;;;31.44;76.02;100747.91;5072413;28;70996;-30
2022/09/01 04:04:26;;;;;;;13.65;12.38;;;;;;;31.45;76.01;100753.09;5067940;28;66293;-29
2022/09/01 04:06:59;;;;;;;14.38;12.85;;;;;;;31.45;75.90;100747.69;5073209;27;70444;-28
2022/09/01 04:09:34;;;;;;;14.38;13.00;;;;;;;31.48;74.97;100744.53;5074137;28;65861;-29
2022/09/01 04:12:07;;;;;;;13.73;12.65;;;;;;;31.36;75.15;100720.06;5070451;28;70855;-29
2022/09/01 04:14:41;;;;;;;19.92;13.27;;;;;;;31.47;75.34;100726.59;5070763;27;67255;-29
2022/09/01 04:20:08;;;;;;;13.52;12.20;;;;;;;31.40;74.25;100723.16;5016293;28;65836;-29
2022/09/01 04:22:40;;;;;;;15.20;13.82;;;;;;;31.52;73.13;100721.31;5075906;27;71056;-28
2022/09/01 04:25:14;;;;;;;12.93;11.73;;;;;;;31.54;72.85;100730.06;5075041;28;65626;-30
2022/09/01 04:27:47;;;;;;;16.23;13.23;;;;;;;31.53;72.42;100722.16;5069134;28;70707;-29
2022/09/01 04:30:19;;;;;;;14.93;13.73;;;;;;;31.53;71.78;100720.25;5070801;28;66298;-29
2022/09/01 04:32:55;;;;;;;16.52;12.55;;;;;;;31.53;71.83;100722.97;5067900;28;70000;-28
2022/09/01 04:35:31;;;;;;;14.23;12.85;;;;;;;31.51;71.57;100714.25;5069149;28;66206;-29
2022/09/01 04:38:07;;;;;;;12.98;11.98;;;;;;;31.44;71.30;100701.84;5072002;27;70119;-30
2022/09/01 04:40:40;;;;;;;15.27;13.15;;;;;;;31.41;71.17;100692.28;5074446;28;66812;-29
2022/09/01 04:43:15;;;;;;;15.18;13.13;;;;;;;31.48;71.11;100697.59;5072453;27;70764;-29
2022/09/01 04:45:50;;;;;;;18.35;12.98;;;;;;;31.71;70.39;100694.19;5066989;28;67198;-29
2022/09/01 04:48:23;;;;;;;25.08;12.45;;;;;;;31.79;70.24;100696.56;5066408;27;70637;-29
2022/09/01 04:51:00;;;;;;;26.40;14.25;;;;;;;31.92;70.01;100699.09;5066150;28;66183;-28
2022/09/01 04:53:37;;;;;;;26.30;13.77;;;;;;;31.96;69.49;100681.31;5064958;28;71318;-31
2022/09/01 04:56:09;;;;;;;36.90;14.45;;;;;;;32.07;68.80;100678.81;5075393;27;66879;-33
2022/09/01 04:58:46;;;;;;;27.02;14.07;;;;;;;32.13;68.66;100686.88;5068848;28;70121;-28
2022/09/01 05:01:22;;;;;;;19.30;13.50;;;;;;;32.08;67.97;100654.19;5071079;28;66971;-30
2022/09/01 05:04:00;;;;;;;25.58;13.70;;;;;;;32.22;68.29;100665.66;5071553;27;70019;-30
2022/09/01 05:06:44;;;;;;;20.73;13.30;;;;;;;31.78;67.68;100578.28;5074881;28;66863;-33
2022/09/01 05:09:18;;;;;;;17.15;13.55;;;;;;;32.13;67.27;100623.66;5072398;28;70762;-30
2022/09/01 05:12:28;;;;;;;18.67;13.30;;;;;;;32.32;67.57;100646.91;5063881;28;67501;-29
2022/09/01 05:15:05;;;;;;;15.63;12.75;;;;;;;32.36;67.18;100645.34;5075822;28;69948;-29
2022/09/01 05:17:37;;;;;;;16.42;12.63;;;;;;;32.38;67.20;100632.38;5075914;28;66302;-30
2022/09/01 05:20:11;;;;;;;23.52;12.88;;;;;;;32.35;66.49;100629.31;5082643;27;70166;-31
2022/09/01 05:22:43;;;;;;;14.70;13.15;;;;;;;32.12;67.63;100622.78;5076261;28;66067;-28
2022/09/01 05:25:15;;;;;;;12.60;11.30;;;;;;;32.05;68.39;100620.22;5068075;28;70712;-30
2022/09/01 05:27:51;;;;;;;14.18;11.52;;;;;;;32.01;68.54;100616.31;5066907;28;66983;-29
2022/09/01 05:30:27;;;;;;;14.45;11.60;;;;;;;31.94;68.16;100615.59;5065738;28;70457;-27
2022/09/01 05:32:59;;;;;;;14.13;10.90;;;;;;;31.84;68.25;100599.03;5052485;28;66508;-29
2022/09/01 05:36:00;;;;;;;11.48;10.35;;;;;;;31.77;68.38;100609.19;5059771;28;70197;-30
2022/09/01 05:38:34;;;;;;;11.35;10.23;;;;;;;31.77;68.08;100591.00;5076609;27;66746;-29
2022/09/01 05:41:13;;;;;;;12.30;10.23;;;;;;;31.82;68.09;100612.03;5062185;28;44104;-31
2022/09/01 05:43:50;;;;;;;11.15;10.10;;;;;;;31.80;68.15;100597.84;5070604;27;65585;-30
2022/09/01 05:46:29;;;;;;;13.15;10.30;;;;;;;31.77;67.60;100598.31;5065708;28;70554;-30
2022/09/01 05:49:02;;;;;;;11.25;10.10;;;;;;;31.79;68.48;100593.50;5078552;27;66549;-29
2022/09/01 05:51:40;;;;;;;14.38;9.05;;;;;;;31.71;67.49;100588.41;5076012;27;70893;-30
2022/09/01 05:54:24;;;;;;;16.20;8.80;;;;;;;31.19;66.79;100515.78;5077484;27;67016;-30
2022/09/01 05:57:01;;;;;;;10.10;8.95;;;;;;;31.57;65.91;100585.91;5071328;27;69599;-29
2022/09/01 05:59:54;;;;;;;11.45;8.27;;;;;;;31.50;64.86;100590.59;5091575;27;66111;-28
2022/09/01 06:02:29;;;;;;;15.30;8.48;;;;;;;31.46;64.27;100578.56;5053156;27;70562;-29
2022/09/01 06:05:05;;;;;;;8.80;7.70;;;;;;;31.32;63.88;100563.53;5061494;27;65749;-29
2022/09/01 06:07:39;;;;;;;22.42;8.05;;;;;;;31.35;63.01;100565.78;5077800;27;70944;-29
2022/09/01 06:10:13;;;;;;;7.93;7.07;;;;;;;31.35;62.65;100569.31;5076843;27;66490;-30
2022/09/01 06:12:46;;;;;;;18.83;7.68;;;;;;;31.24;61.46;100551.13;5072273;27;70174;-30
2022/09/01 06:15:23;;;;;;;8.68;6.97;;;;;;;31.31;61.26;100559.16;5050997;28;66884;-29
2022/09/01 06:17:57;;;;;;;12.10;7.18;;;;;;;31.28;61.35;100551.50;5075525;28;70962;-29
2022/09/01 06:20:32;;;;;;;13.68;7.10;;;;;;;31.27;60.68;100544.44;5069344;28;67210;-29
2022/09/01 06:23:04;;;;;;;11.20;6.28;;;;;;;31.24;60.19;100555.72;5073192;28;71066;-28
2022/09/01 06:25:38;;;;;;;8.20;6.43;;;;;;;31.23;59.41;100548.63;5070302;28;67278;-29
2022/09/01 06:28:15;;;;;;;10.75;6.05;;;;;;;31.21;59.16;100539.94;5072637;28;70038;-28
2022/09/01 06:30:49;;;;;;;8.40;6.47;;;;;;;30.87;58.34;100486.22;5074096;28;66177;-30
2022/09/01 06:33:23;;;;;;;17.70;6.80;;;;;;;31.16;58.94;100530.59;5078806;27;69808;-30
2022/09/01 06:35:56;;;;;;;9.25;5.93;;;;;;;31.15;58.36;100523.53;5077210;28;66903;-30
2022/09/01 06:38:28;;;;;;;12.38;6.13;;;;;;;31.08;58.01;100511.16;5074966;28;69930;-29
2022/09/01 06:41:03;;;;;;;5.82;5.45;;;;;;;30.58;56.55;100428.25;5076309;28;67396;-32
2022/09/01 06:43:35;;;;;;;12.18;5.93;;;;;;;31.07;56.53;100506.78;5075585;28;70633;-30
2022/09/01 06:46:08;;;;;;;6.03;5.22;;;;;;;31.04;55.81;100502.66;5079921;28;67214;-28
2022/09/01 06:48:45;;;;;;;5.72;5.20;;;;;;;31.03;55.53;100506.41;5077740;28;71178;-29
2022/09/01 06:51:19;;;;;;;8.82;5.38;;;;;;;30.53;54.90;100420.00;5074578;27;67021;-30
2022/09/01 06:53:58;;;;;;;10.63;5.75;;;;;;;31.03;54.25;100495.56;5073943;27;70866;-30
2022/09/01 06:56:35;;;;;;;5.97;5.00;;;;;;;30.92;54.38;100466.56;5075091;27;65797;-30
2022/09/01 06:59:30;;;;;;;8.20;5.20;;;;;;;31.04;53.23;100485.59;5074663;27;70345;-32
2022/09/01 07:02:08;;;;;;;6.25;4.60;;;;;;;31.00;53.32;100485.19;5097262;27;66971;-31
2022/09/01 07:05:16;;;;;;;5.05;4.55;;;;;;;30.95;52.93;100466.09;5048762;27;70068;-30
2022/09/01 07:08:12;;;;;;;5.10;4.47;;;;;;;31.03;52.63;100473.06;5073724;27;66175;-29
2022/09/01 07:11:15;;;;;;;6.22;4.97;;;;;;;30.62;52.24;100407.81;5092159;27;70298;-29
2022/09/01 07:14:08;;;;;;;7.88;5.22;;;;;;;31.05;52.14;100469.09;5076437;27;67043;-29
2022/09/01 07:16:47;;;;;;;11.32;4.88;;;;;;;31.00;52.10;100446.47;5078970;27;70855;-30
2022/09/01 07:19:40;;;;;;;4.72;3.83;;;;;;;31.07;51.79;100442.59;5093733;27;67003;-29
2022/09/01 07:22:19;;;;;;;10.40;4.68;;;;;;;31.19;53.66;100444.50;5089733;27;72065;-30
2022/09/01 07:25:11;;;;;;;;;;;;;;;30.92;53.97;100444.91;5081101;27;66049;-30
2022/09/01 07:27:53;;;;;;;7.32;4.38;;;;;;;31.21;52.85;100437.78;5069549;28;69994;-34
2022/09/01 07:30:32;;;;;;;4.82;4.43;;;;;;;31.27;54.01;100431.44;5073172;28;66567;-30
2022/09/01 07:33:10;;;;;;;8.07;4.50;;;;;;;31.33;53.90;100435.91;5075069;28;70343;-29
2022/09/01 07:36:06;;;;;;;5.00;4.20;;;;;;;31.36;53.71;100421.91;5074972;28;66112;-30
2022/09/01 07:39:00;;;;;;;7.90;3.90;;;;;;;31.43;53.06;100424.53;5088546;27;70492;-29
2022/09/01 07:42:15;;;;;;;8.60;4.43;;;;;;;31.37;53.47;100401.06;5075373;27;66202;-29
2022/09/01 07:45:46;;;;;;;11.48;5.65;;;;;;;30.94;56.75;100319.03;5044399;28;70089;-29
2022/09/01 07:48:28;;;;;;;10.90;5.30;;;;;;;31.78;59.76;100412.84;5071411;27;65900;-27
2022/09/01 07:51:21;;;;;;;;;;;;;;;31.75;61.23;100410.59;5074284;27;70067;-29
2022/09/01 07:54:12;;;;;;;18.23;6.20;;;;;;;32.15;59.88;100404.41;5071610;27;67643;-29
2022/09/01 07:56:44;;;;;;;14.07;6.25;;;;;;;32.35;59.42;100404.84;5076359;27;70597;-31
2022/09/01 07:59:17;;;;;;;10.65;5.70;;;;;;;32.44;59.58;100389.81;5068734;28;66438;-29
2022/09/01 08:02:04;;;;;;;8.70;5.72;;;;;;;32.62;59.16;100394.22;5076075;28;70773;-28
2022/09/01 08:04:38;;;;;;;13.40;5.90;;;;;;;32.73;58.86;100400.66;5083922;27;66086;-29
2022/09/01 08:07:13;;;;;;;25.13;5.88;;;;;;;32.83;58.58;100384.56;5063680;28;70624;-29
2022/09/01 08:09:46;;;;;;;11.10;6.00;;;;;;;32.91;58.40;100375.19;5084689;27;67187;-29
2022/09/01 08:12:19;;;;;;;15.68;5.68;;;;;;;32.98;58.21;100370.41;5084571;27;70484;-29
2022/09/01 08:15:05;;;;;;;10.17;6.10;;;;;;;32.53;58.00;100286.28;5062860;28;66242;-29
2022/09/01 08:17:57;;;;;;;9.65;6.75;;;;;;;33.11;58.04;100370.09;5076045;28;69697;-29
2022/09/01 08:20:51;;;;;;;12.90;6.30;;;;;;;33.19;57.96;100368.88;5075291;28;66584;-29
2022/09/01 08:23:38;;;;;;;14.68;6.13;;;;;;;33.24;58.24;100362.66;5076897;27;70125;-32
2022/09/01 08:26:16;;;;;;;19.20;6.47;;;;;;;32.81;57.90;100280.75;5058550;28;66072;-31
2022/09/01 08:28:52;;;;;;;12.95;6.38;;;;;;;33.32;57.52;100357.66;5073927;28;70061;-31
2022/09/01 08:31:40;;;;;;;21.80;6.28;;;;;;;33.34;57.93;100357.41;5089721;27;66895;-29
2022/09/01 08:34:15;;;;;;;21.92;7.82;;;;;;;33.30;59.03;100343.50;5069252;28;71471;-28
2022/09/01 08:36:48;;;;;;;15.27;7.13;;;;;;;33.42;58.89;100353.44;5076951;28;66608;-30
2022/09/01 08:39:21;;;;;;;16.67;7.40;;;;;;;33.47;59.13;100358.94;5066923;28;70662;-30
2022/09/01 08:42:44;;;;;;;13.25;7.47;;;;;;;33.34;58.81;100341.91;5069565;28;66685;-28
2022/09/01 08:45:24;;;;;;;14.10;7.82;;;;;;;33.52;58.53;100348.16;4994420;28;71198;-29
2022/09/01 08:48:18;;;;;;;11.63;6.85;;;;;;;33.21;58.34;100287.06;5065751;27;67089;-32
2022/09/01 08:51:25;;;;;;;20.05;7.07;;;;;;;33.18;58.55;100288.38;5068045;27;70821;-31
2022/09/01 08:54:30;;;;;;;9.98;7.15;;;;;;;33.62;58.29;100323.00;5065508;28;65896;-30
2022/09/01 08:57:05;;;;;;;;;;;;;;;33.33;58.83;100323.97;5067367;27;69987;-29
2022/09/01 08:59:56;;;;;;;15.60;7.00;;;;;;;33.64;58.37;100329.84;5078057;28;66497;-30
2022/09/01 09:03:16;;;;;;;14.43;7.55;;;;;;;33.68;58.00;100322.81;5071151;28;69830;-29
2022/09/01 09:06:03;;;;;;;9.45;5.90;;;;;;;33.69;58.29;100323.66;5014414;28;66914;-29
2022/09/01 09:08:57;;;;;;;11.20;6.85;;;;;;;33.65;58.15;100320.59;5067040;28;70041;-28
2022/09/01 09:12:09;;;;;;;11.48;6.43;;;;;;;33.68;58.36;100319.28;5075591;28;67051;-29
2022/09/01 09:15:02;;;;;;;8.77;6.28;;;;;;;33.76;58.33;100322.38;5062287;28;71030;-28
2022/09/01 09:17:42;;;;;;;12.77;7.72;;;;;;;32.92;61.17;100195.63;5078727;28;67463;-29
2022/09/01 09:20:15;;;;;;;9.98;6.95;;;;;;;33.53;60.28;100274.50;5067575;28;70126;-29
2022/09/01 09:22:52;;;;;;;14.50;7.68;;;;;;;33.70;59.90;100303.53;5069373;28;66970;-28
2022/09/01 09:25:24;;;;;;;21.45;7.80;;;;;;;33.79;60.34;100308.28;5075455;28;70852;-28
2022/09/01 09:27:58;;;;;;;20.05;8.02;;;;;;;33.85;60.46;100319.19;5067902;28;66757;-29
2022/09/01 09:30:31;;;;;;;9.68;7.53;;;;;;;33.85;60.07;100330.09;5067118;28;69987;-28
2022/09/01 09:33:09;;;;;;;13.60;8.05;;;;;;;33.67;59.79;100298.59;5071377;28;66853;-30
2022/09/01 09:36:23;;;;;;;10.50;7.13;;;;;;;33.28;60.28;100255.13;5074321;28;70478;-29
2022/09/01 09:39:08;;;;;;;12.77;6.63;;;;;;;33.38;59.90;100269.66;5076663;28;66813;-29
2022/09/01 09:41:41;;;;;;;12.10;6.88;;;;;;;33.87;59.77;100338.81;5075007;28;70826;-29
2022/09/01 09:44:26;;;;;;;9.63;7.40;;;;;;;33.80;59.99;100339.84;5076561;27;66743;-29
2022/09/01 09:46:58;;;;;;;9.38;7.13;;;;;;;33.86;60.01;100337.19;5073968;28;69510;-29
2022/09/01 09:49:33;;;;;;;7.97;7.13;;;;;;;33.33;60.21;100261.44;5068976;28;66439;-29
2022/09/01 09:52:17;;;;;;;11.13;7.30;;;;;;;33.31;60.30;100260.84;5070659;28;69833;-30
2022/09/01 09:55:23;;;;;;;9.82;7.03;;;;;;;33.42;60.54;100301.78;5063605;27;66959;-30
2022/09/01 09:57:59;;;;;;;10.23;7.20;;;;;;;33.86;60.23;100348.06;5062003;28;70699;-29
2022/09/01 10:00:33;;;;;;;9.20;7.05;;;;;;;33.39;60.50;100273.19;5066792;28;66171;-30
2022/09/01 10:03:09;;;;;;;7.70;6.55;;;;;;;33.80;60.51;100345.28;5065285;28;70531;-30
2022/09/01 10:05:47;;;;;;;12.48;7.95;;;;;;;33.48;60.42;100300.78;5075614;27;66442;-29
2022/09/01 10:08:33;;;;;;;8.68;6.80;;;;;;;33.83;60.67;100373.06;5078043;28;69738;-29
2022/09/01 10:11:05;;;;;;;13.90;7.50;;;;;;;33.86;60.71;100386.16;5076422;28;66789;-28
2022/09/01 10:13:38;;;;;;;10.95;7.93;;;;;;;33.84;61.01;100380.13;5080676;27;70464;-29
2022/09/01 10:16:27;;;;;;;12.38;7.60;;;;;;;33.43;60.92;100331.41;5077624;28;67133;-29
2022/09/01 10:19:02;;;;;;;13.27;8.03;;;;;;;33.81;60.85;100385.00;5072303;28;71142;-29
2022/09/01 10:21:44;;;;;;;10.07;7.65;;;;;;;33.37;60.92;100316.94;5076755;28;66673;-29
2022/09/01 10:24:32;;;;;;;18.00;8.15;;;;;;;33.50;61.30;100363.88;5068323;28;69348;-29
2022/09/01 10:27:19;;;;;;;37.17;16.67;;;;;;;33.32;61.27;100343.22;5081077;27;65921;-29
2022/09/01 10:30:02;;;;;;;75.00;26.55;;;;;;;33.58;60.96;100393.41;5079210;28;70882;-29
2022/09/01 10:32:48;;;;;;;127.22;42.25;;;;;;;33.36;61.59;100356.06;5071342;28;66971;-29
2022/09/01 10:35:25;;;;;;;132.10;46.42;;;;;;;33.81;61.52;100435.88;5075121;28;70867;-31
2022/09/01 10:38:03;;;;;;;130.15;47.80;;;;;;;33.79;61.86;100444.31;5069267;28;66215;-28
2022/09/01 10:40:45;;;;;;;110.68;42.80;;;;;;;33.43;61.61;100382.25;5063321;28;70729;-28
2022/09/01 10:43:26;;;;;;;95.82;38.78;;;;;;;33.78;61.76;100434.47;5075593;28;67100;-29
2022/09/01 10:46:06;;;;;;;81.60;33.97;;;;;;;33.33;63.31;100410.94;5073548;28;69743;-30
2022/09/01 10:48:50;;;;;;;78.15;31.50;;;;;;;33.35;64.52;100452.31;5071621;28;66643;-28
2022/09/01 10:51:25;;;;;;;64.00;26.52;;;;;;;33.24;65.42;100444.22;5063808;28;70503;-28
2022/09/01 10:54:09;;;;;;;68.65;27.42;;;;;;;33.18;65.62;100451.47;5071347;28;66773;-29
2022/09/01 10:56:47;;;;;;;56.30;26.10;;;;;;;32.66;65.94;100378.28;5073941;27;70287;-29
2022/09/01 10:59:22;;;;;;;49.58;23.42;;;;;;;33.05;65.78;100458.06;5076713;28;66942;-28
2022/09/01 11:02:20;;;;;;;53.45;21.55;;;;;;;32.49;65.88;100384.50;5077861;28;70291;-29
2022/09/01 11:04:58;;;;;;;48.35;20.67;;;;;;;32.97;66.26;100473.91;5079918;28;66949;-29
2022/09/01 11:07:34;;;;;;;33.17;19.33;;;;;;;32.94;66.12;100489.63;5075149;27;70732;-29
2022/09/01 11:10:31;;;;;;;38.80;19.58;;;;;;;32.92;66.06;100477.34;5075604;28;66662;-32
2022/09/01 11:13:20;;;;;;;37.45;18.30;;;;;;;32.26;66.19;100390.00;5081124;27;70304;-29
2022/09/01 11:15:54;;;;;;;31.85;17.25;;;;;;;32.76;66.00;100464.53;5074847;27;66333;-28
2022/09/01 11:18:30;;;;;;;25.30;16.13;;;;;;;32.78;65.97;100471.38;5078372;28;71163;-29
2022/09/01 11:21:27;;;;;;;31.85;15.90;;;;;;;32.42;66.02;100446.22;5074828;27;66467;-28
2022/09/01 11:24:37;;;;;;;23.88;14.98;;;;;;;32.78;66.57;100517.56;5074016;28;70543;-29
2022/09/01 11:27:12;;;;;;;24.65;15.60;;;;;;;32.85;66.23;100540.00;5078377;27;65978;-29
2022/09/01 11:30:01;;;;;;;20.60;13.18;;;;;;;32.83;66.15;100542.13;5075297;28;70868;-27
2022/09/01 11:32:36;;;;;;;21.80;13.85;;;;;;;32.78;66.24;100541.19;5076220;27;66248;-30
2022/09/01 11:35:19;;;;;;;21.40;14.18;;;;;;;32.37;66.45;100475.97;5076288;27;70821;-31
2022/09/01 11:37:56;;;;;;;19.05;13.13;;;;;;;32.83;66.27;100558.41;5077410;27;67580;-29
2022/09/01 11:40:31;;;;;;;21.60;13.68;;;;;;;32.85;66.54;100566.34;5072495;28;70786;-30
2022/09/01 11:43:13;;;;;;;18.10;13.32;;;;;;;32.76;66.68;100559.59;5077154;28;67172;-29
2022/09/01 11:46:14;;;;;;;27.23;14.23;;;;;;;32.72;68.45;100572.84;5063108;28;70594;-32
2022/09/01 11:48:48;;;;;;;20.27;12.85;;;;;;;32.40;68.36;100510.81;5068492;28;66043;-31
2022/09/01 11:51:21;;;;;;;17.83;12.30;;;;;;;32.79;68.52;100581.72;5065625;27;70818;-29
2022/09/01 11:53:59;;;;;;;17.30;12.70;;;;;;;31.94;68.28;100441.16;5069742;27;66062;-28
2022/09/01 11:56:31;;;;;;;15.82;11.65;;;;;;;32.73;68.37;100574.50;5080692;27;70838;-28
2022/09/01 11:59:04;;;;;;;19.15;11.73;;;;;;;32.68;68.17;100567.09;5070305;28;66343;-29
2022/09/01 12:01:56;;;;;;;18.80;11.68;;;;;;;32.71;68.04;100587.50;5066539;28;70556;-29
2022/09/01 12:04:39;;;;;;;13.68;10.50;;;;;;;32.64;67.91;100567.78;5069000;28;66998;-30
2022/09/01 12:07:24;;;;;;;12.95;10.85;;;;;;;32.68;67.92;100582.53;5072658;28;70325;-29
2022/09/01 12:09:56;;;;;;;13.40;11.25;;;;;;;32.58;68.26;100571.47;5078038;28;67020;-29
2022/09/01 12:12:35;;;;;;;16.02;10.43;;;;;;;32.69;68.40;100595.06;5078089;27;70626;-30
2022/09/01 12:15:23;;;;;;;11.70;10.38;;;;;;;32.74;68.82;100600.59;5076529;28;67128;-30